Zeran (malta) — 9HHJ5 — position and weather

sailwx.info

Track history (hours):
 
Tides and Currents Weather Stations Pressure Air Temp Water Temp Dewpoint Dewpoint Depression Visibility Wind Speed Wind Dir Waves Ship Positions

Zeran (malta)

Last reported at 2015-May-06 22:33 UTC. Time now 2015-May-06 23:35 UTC.
Position N 34°18' E 012°23'.

Length 148 m; beam 24 m.

Type: Ship (hazmat cat A). MMSI: 249846000.

Date/timePositionNaut miles runAvg speedWind from/ knotsBaromVisibWave heightAir tempDewpointWater temp
2015-May-06 22:33N 34°18' E 012°23'1111.0
2015-May-06 21:32N 34°29' E 012°24'1110.8
2015-May-06 20:33N 34°40' E 012°25'2210.9
2015-May-06 18:33N 35°02' E 012°23'3610.4
2015-May-06 15:06N 35°36' E 012°33'710.9
2015-May-06 14:28N 35°40' E 012°40'1011.1
2015-May-06 13:33N 35°46' E 012°51'1111.1
2015-May-06 12:33N 35°51' E 013°03'1110.8
2015-May-06 11:33N 35°56' E 013°15'1110.9
2015-May-06 10:33N 36°01' E 013°27'1211.6
2015-May-06 09:33N 36°06' E 013°40'1111.5
2015-May-06 08:33N 36°12' E 013°52'1111.3
2015-May-06 07:33N 36°17' E 014°05'1111.4
2015-May-06 06:33N 36°21' E 014°18'1111.4
2015-May-06 05:33N 36°24' E 014°32'1110.6
2015-May-06 04:33N 36°26' E 014°44'10 9.8
2015-May-06 03:33N 36°29' E 014°56'1010.4
2015-May-06 02:33N 36°31' E 015°09'1110.6
2015-May-06 01:32N 36°34' E 015°22'10 9.8
2015-May-06 00:33N 36°42' E 015°30'1010.4
2015-May-05 23:33N 36°52' E 015°31'1110.9
2015-May-05 22:33N 37°03' E 015°32'1110.9
2015-May-05 21:32N 37°14' E 015°32'9 0.4
2015-May-04 22:13N 37°05' E 015°33'5 6.8
2015-May-04 21:33N 37°00' E 015°33'7 7.1
2015-May-04 20:32N 36°53' E 015°32'7 7.3
2015-May-04 19:33N 36°46' E 015°31'7 7.0
2015-May-04 18:33N 36°39' E 015°29'8 7.7
2015-May-04 17:33N 36°36' E 015°20'9 8.8
2015-May-04 16:33N 36°33' E 015°10'9 8.9
2015-May-04 15:34N 36°32' E 014°59'9 9.4
2015-May-04 14:33N 36°30' E 014°48'1111.3
2015-May-04 13:34N 36°27' E 014°34'1110.6
2015-May-04 12:33N 36°26' E 014°21'1110.8
2015-May-04 11:33N 36°24' E 014°08'1110.9
2015-May-04 10:33N 36°22' E 013°54'1110.7
2015-May-04 09:33N 36°20' E 013°41'9 8.8
2015-May-04 08:33N 36°15' E 013°32'1111.3
2015-May-04 07:34N 36°04' E 013°32'1111.3
2015-May-04 06:34N 35°53' E 013°32'1111.2
2015-May-04 05:33N 35°42' E 013°32'1211.6
2015-May-04 04:34N 35°30' E 013°33'1211.6
2015-May-04 03:34N 35°18' E 013°34'1111.3
2015-May-04 02:33N 35°07' E 013°34'1211.6
2015-May-04 01:33N 34°56' E 013°33'1211.7
2015-May-04 00:33N 34°44' E 013°34'1211.8
2015-May-03 23:33N 34°32' E 013°34'1211.8
2015-May-03 22:34N 34°20' E 013°36'1211.8
2015-May-03 21:33N 34°08' E 013°36'1212.0
2015-May-03 20:34N 33°57' E 013°36'125 3.4
2015-May-02 08:18N 32°22' E 015°13'0 0.0
2015-May-02 06:30N 32°22' E 015°13'0 0.0
2015-May-02 05:33N 32°22' E 015°13'0 0.0
2015-May-02 04:33N 32°22' E 015°13'0 0.0
2015-May-02 03:30N 32°22' E 015°13'0 0.0
2015-May-02 02:33N 32°22' E 015°13'0 0.0
2015-May-02 01:30N 32°22' E 015°13'0 0.0
2015-May-02 00:18N 32°22' E 015°13'3 0.3
2015-May-01 15:32N 32°23' E 015°17'4110.3
2015-May-01 11:31N 33°04' E 015°18'1611.3
2015-May-01 10:04N 33°20' E 015°18'1711.1
2015-May-01 08:33N 33°37' E 015°19'1111.1
2015-May-01 07:34N 33°48' E 015°19'1111.0
2015-May-01 06:34N 33°59' E 015°20'1010.4
2015-May-01 05:34N 34°10' E 015°21'1010.1
2015-May-01 04:33N 34°20' E 015°22'1110.6
2015-May-01 03:32N 34°30' E 015°23'7510.5
2015-Apr-30 20:25N 35°45' E 015°11'1011.3
2015-Apr-30 19:33N 35°53' E 015°05'1111.3
2015-Apr-30 18:34N 36°02' E 014°57'1111.3
2015-Apr-30 17:33N 36°08' E 014°45'1211.7
2015-Apr-30 16:33N 36°15' E 014°33'1111.6
2015-Apr-30 15:34N 36°22' E 014°22'1211.7
2015-Apr-30 14:34N 36°29' E 014°10'1211.6
2015-Apr-30 13:33N 36°35' E 013°58'1211.7
2015-Apr-30 12:34N 36°41' E 013°46'1212.0
2015-Apr-30 11:33N 36°48' E 013°34'1211.6
2015-Apr-30 10:34N 36°55' E 013°22'1211.5
2015-Apr-30 09:34N 37°01' E 013°10'1211.5
2015-Apr-30 08:33N 37°08' E 012°58'1111.1
2015-Apr-30 07:34N 37°14' E 012°46'2311.3
2015-Apr-30 05:34N 37°28' E 012°24'1111.1
2015-Apr-30 04:33N 37°34' E 012°12'1411.0
2015-Apr-30 03:19N 37°46' E 012°03'910.8
2015-Apr-30 02:31N 37°54' E 011°59'1111.5
2015-Apr-30 01:33N 38°04' E 011°54'1311.5
2015-Apr-30 00:25N 38°16' E 011°48'2511.0
2015-Apr-29 22:08N 38°40' E 011°37'711.1
2015-Apr-29 21:31N 38°47' E 011°35'1111.0
2015-Apr-29 20:31N 38°57' E 011°30'23910.3
2015-Apr-28 21:27N 42°42' E 009°47'38 9.8
2015-Apr-28 17:34N 43°18' E 009°29'1010.1
2015-Apr-28 16:33N 43°28' E 009°24'10 9.9
2015-Apr-28 15:33N 43°37' E 009°20'1010.1
2015-Apr-28 14:33N 43°47' E 009°15'1010.2
2015-Apr-28 13:34N 43°56' E 009°10'1010.4
2015-Apr-28 12:33N 44°06' E 009°04'1010.4
2015-Apr-28 11:33N 44°15' E 008°59'9 9.5
2015-Apr-28 10:34N 44°24' E 008°53'1 0.7
2015-Apr-28 09:31N 44°24' E 008°53'0 0.0
2015-Apr-28 08:31N 44°24' E 008°53'0 0.0
2015-Apr-28 07:31N 44°24' E 008°53'0 0.0
2015-Apr-28 06:31N 44°24' E 008°53'0 0.0
2015-Apr-28 05:25N 44°24' E 008°53'0 0.0
2015-Apr-28 04:31N 44°24' E 008°53'0 0.0
2015-Apr-28 03:28N 44°24' E 008°53'0 0.0
2015-Apr-28 02:31N 44°24' E 008°53'0 0.0
2015-Apr-28 01:28N 44°24' E 008°53'0 0.0
2015-Apr-28 00:31N 44°24' E 008°53'0 0.0
2015-Apr-27 23:31N 44°24' E 008°53'0 0.0
2015-Apr-27 22:31N 44°24' E 008°53'0 0.0
2015-Apr-27 21:31N 44°24' E 008°53'0 0.0
2015-Apr-27 20:31N 44°24' E 008°53'0 0.0
2015-Apr-27 19:31N 44°24' E 008°53'0 0.0
2015-Apr-27 18:31N 44°24' E 008°53'0 0.0
2015-Apr-27 17:31N 44°24' E 008°53'0 0.0
2015-Apr-27 16:28N 44°24' E 008°53'0 0.0
2015-Apr-27 15:31N 44°24' E 008°53'0 0.0
2015-Apr-27 14:25N 44°24' E 008°53'0 0.0
2015-Apr-27 13:28N 44°24' E 008°53'0 0.0
2015-Apr-27 12:31N 44°24' E 008°53'0 0.0
2015-Apr-27 11:28N 44°24' E 008°53'0 0.0
2015-Apr-27 10:31N 44°24' E 008°53'0 0.0
2015-Apr-27 09:28N 44°24' E 008°53'0 0.0
2015-Apr-27 08:31N 44°24' E 008°53'0 0.0
2015-Apr-27 07:33N 44°24' E 008°53'4 3.7
2015-Apr-27 06:33N 44°23' E 008°57'9 8.5
2015-Apr-27 05:33N 44°15' E 009°01'9 9.2
2015-Apr-27 04:33N 44°06' E 009°05'10 9.6
2015-Apr-27 03:33N 43°57' E 009°10'10 9.6
2015-Apr-27 02:33N 43°48' E 009°15'9 9.3
2015-Apr-27 01:33N 43°39' E 009°19'9 9.1
2015-Apr-27 00:33N 43°31' E 009°23'9 9.4
2015-Apr-26 23:33N 43°22' E 009°27'  
Track history (hours):
 
Tides and Currents Weather Stations Pressure Air Temp Water Temp Dewpoint Dewpoint Depression Visibility Wind Speed Wind Dir Waves Ship Positions

Zeran (malta)

Last reported at 2015-May-06 22:33 UTC. Time now 2015-May-06 23:35 UTC.
Position N 34°18' E 012°23'.

Length 148 m; beam 24 m.

Type: Ship (hazmat cat A). MMSI: 249846000.

Date/timePositionNaut miles runAvg speedWind from/ knotsBaromVisibWave heightAir tempDewpointWater temp
2015-May-06 22:33N 34°18' E 012°23'1111.0
2015-May-06 21:32N 34°29' E 012°24'1110.8
2015-May-06 20:33N 34°40' E 012°25'2210.9
2015-May-06 18:33N 35°02' E 012°23'3610.4
2015-May-06 15:06N 35°36' E 012°33'710.9
2015-May-06 14:28N 35°40' E 012°40'1011.1
2015-May-06 13:33N 35°46' E 012°51'1111.1
2015-May-06 12:33N 35°51' E 013°03'1110.8
2015-May-06 11:33N 35°56' E 013°15'1110.9
2015-May-06 10:33N 36°01' E 013°27'1211.6
2015-May-06 09:33N 36°06' E 013°40'1111.5
2015-May-06 08:33N 36°12' E 013°52'1111.3
2015-May-06 07:33N 36°17' E 014°05'1111.4
2015-May-06 06:33N 36°21' E 014°18'1111.4
2015-May-06 05:33N 36°24' E 014°32'1110.6
2015-May-06 04:33N 36°26' E 014°44'10 9.8
2015-May-06 03:33N 36°29' E 014°56'1010.4
2015-May-06 02:33N 36°31' E 015°09'1110.6
2015-May-06 01:32N 36°34' E 015°22'10 9.8
2015-May-06 00:33N 36°42' E 015°30'1010.4
2015-May-05 23:33N 36°52' E 015°31'1110.9
2015-May-05 22:33N 37°03' E 015°32'1110.9
2015-May-05 21:32N 37°14' E 015°32'9 0.4
2015-May-04 22:13N 37°05' E 015°33'5 6.8
2015-May-04 21:33N 37°00' E 015°33'7 7.1
2015-May-04 20:32N 36°53' E 015°32'7 7.3
2015-May-04 19:33N 36°46' E 015°31'7 7.0
2015-May-04 18:33N 36°39' E 015°29'8 7.7
2015-May-04 17:33N 36°36' E 015°20'9 8.8
2015-May-04 16:33N 36°33' E 015°10'9 8.9
2015-May-04 15:34N 36°32' E 014°59'9 9.4
2015-May-04 14:33N 36°30' E 014°48'1111.3
2015-May-04 13:34N 36°27' E 014°34'1110.6
2015-May-04 12:33N 36°26' E 014°21'1110.8
2015-May-04 11:33N 36°24' E 014°08'1110.9
2015-May-04 10:33N 36°22' E 013°54'1110.7
2015-May-04 09:33N 36°20' E 013°41'9 8.8
2015-May-04 08:33N 36°15' E 013°32'1111.3
2015-May-04 07:34N 36°04' E 013°32'1111.3
2015-May-04 06:34N 35°53' E 013°32'1111.2
2015-May-04 05:33N 35°42' E 013°32'1211.6
2015-May-04 04:34N 35°30' E 013°33'1211.6
2015-May-04 03:34N 35°18' E 013°34'1111.3
2015-May-04 02:33N 35°07' E 013°34'1211.6
2015-May-04 01:33N 34°56' E 013°33'1211.7
2015-May-04 00:33N 34°44' E 013°34'1211.8
2015-May-03 23:33N 34°32' E 013°34'1211.8
2015-May-03 22:34N 34°20' E 013°36'1211.8
2015-May-03 21:33N 34°08' E 013°36'1212.0
2015-May-03 20:34N 33°57' E 013°36'125 3.4
2015-May-02 08:18N 32°22' E 015°13'0 0.0
2015-May-02 06:30N 32°22' E 015°13'0 0.0
2015-May-02 05:33N 32°22' E 015°13'0 0.0
2015-May-02 04:33N 32°22' E 015°13'0 0.0
2015-May-02 03:30N 32°22' E 015°13'0 0.0
2015-May-02 02:33N 32°22' E 015°13'0 0.0
2015-May-02 01:30N 32°22' E 015°13'0 0.0
2015-May-02 00:18N 32°22' E 015°13'3 0.3
2015-May-01 15:32N 32°23' E 015°17'4110.3
2015-May-01 11:31N 33°04' E 015°18'1611.3
2015-May-01 10:04N 33°20' E 015°18'1711.1
2015-May-01 08:33N 33°37' E 015°19'1111.1
2015-May-01 07:34N 33°48' E 015°19'1111.0
2015-May-01 06:34N 33°59' E 015°20'1010.4
2015-May-01 05:34N 34°10' E 015°21'1010.1
2015-May-01 04:33N 34°20' E 015°22'1110.6
2015-May-01 03:32N 34°30' E 015°23'7510.5
2015-Apr-30 20:25N 35°45' E 015°11'1011.3
2015-Apr-30 19:33N 35°53' E 015°05'1111.3
2015-Apr-30 18:34N 36°02' E 014°57'1111.3
2015-Apr-30 17:33N 36°08' E 014°45'1211.7
2015-Apr-30 16:33N 36°15' E 014°33'1111.6
2015-Apr-30 15:34N 36°22' E 014°22'1211.7
2015-Apr-30 14:34N 36°29' E 014°10'1211.6
2015-Apr-30 13:33N 36°35' E 013°58'1211.7
2015-Apr-30 12:34N 36°41' E 013°46'1212.0
2015-Apr-30 11:33N 36°48' E 013°34'1211.6
2015-Apr-30 10:34N 36°55' E 013°22'1211.5
2015-Apr-30 09:34N 37°01' E 013°10'1211.5
2015-Apr-30 08:33N 37°08' E 012°58'1111.1
2015-Apr-30 07:34N 37°14' E 012°46'2311.3
2015-Apr-30 05:34N 37°28' E 012°24'1111.1
2015-Apr-30 04:33N 37°34' E 012°12'1411.0
2015-Apr-30 03:19N 37°46' E 012°03'910.8
2015-Apr-30 02:31N 37°54' E 011°59'1111.5
2015-Apr-30 01:33N 38°04' E 011°54'1311.5
2015-Apr-30 00:25N 38°16' E 011°48'2511.0
2015-Apr-29 22:08N 38°40' E 011°37'711.1
2015-Apr-29 21:31N 38°47' E 011°35'1111.0
2015-Apr-29 20:31N 38°57' E 011°30'23910.3
2015-Apr-28 21:27N 42°42' E 009°47'38 9.8
2015-Apr-28 17:34N 43°18' E 009°29'1010.1
2015-Apr-28 16:33N 43°28' E 009°24'10 9.9
2015-Apr-28 15:33N 43°37' E 009°20'1010.1
2015-Apr-28 14:33N 43°47' E 009°15'1010.2
2015-Apr-28 13:34N 43°56' E 009°10'1010.4
2015-Apr-28 12:33N 44°06' E 009°04'1010.4
2015-Apr-28 11:33N 44°15' E 008°59'9 9.5
2015-Apr-28 10:34N 44°24' E 008°53'1 0.7
2015-Apr-28 09:31N 44°24' E 008°53'0 0.0
2015-Apr-28 08:31N 44°24' E 008°53'0 0.0
2015-Apr-28 07:31N 44°24' E 008°53'0 0.0
2015-Apr-28 06:31N 44°24' E 008°53'0 0.0
2015-Apr-28 05:25N 44°24' E 008°53'0 0.0
2015-Apr-28 04:31N 44°24' E 008°53'0 0.0
2015-Apr-28 03:28N 44°24' E 008°53'0 0.0
2015-Apr-28 02:31N 44°24' E 008°53'0 0.0
2015-Apr-28 01:28N 44°24' E 008°53'0 0.0
2015-Apr-28 00:31N 44°24' E 008°53'0 0.0
2015-Apr-27 23:31N 44°24' E 008°53'0 0.0
2015-Apr-27 22:31N 44°24' E 008°53'0 0.0
2015-Apr-27 21:31N 44°24' E 008°53'0 0.0
2015-Apr-27 20:31N 44°24' E 008°53'0 0.0
2015-Apr-27 19:31N 44°24' E 008°53'0 0.0
2015-Apr-27 18:31N 44°24' E 008°53'0 0.0
2015-Apr-27 17:31N 44°24' E 008°53'0 0.0
2015-Apr-27 16:28N 44°24' E 008°53'0 0.0
2015-Apr-27 15:31N 44°24' E 008°53'0 0.0
2015-Apr-27 14:25N 44°24' E 008°53'0 0.0
2015-Apr-27 13:28N 44°24' E 008°53'0 0.0
2015-Apr-27 12:31N 44°24' E 008°53'0 0.0
2015-Apr-27 11:28N 44°24' E 008°53'0 0.0
2015-Apr-27 10:31N 44°24' E 008°53'0 0.0
2015-Apr-27 09:28N 44°24' E 008°53'0 0.0
2015-Apr-27 08:31N 44°24' E 008°53'0 0.0
2015-Apr-27 07:33N 44°24' E 008°53'4 3.7
2015-Apr-27 06:33N 44°23' E 008°57'9 8.5
2015-Apr-27 05:33N 44°15' E 009°01'9 9.2
2015-Apr-27 04:33N 44°06' E 009°05'10 9.6
2015-Apr-27 03:33N 43°57' E 009°10'10 9.6
2015-Apr-27 02:33N 43°48' E 009°15'9 9.3
2015-Apr-27 01:33N 43°39' E 009°19'9 9.1
2015-Apr-27 00:33N 43°31' E 009°23'9 9.4
2015-Apr-26 23:33N 43°22' E 009°27'  

Dump ship's entire track history